sensor_id;sensor_type;location;lat;lon;timestamp;pressure;altitude;pressure_sealevel;temperature;humidity
77939;BME280;67136;47.546;21.630;2024-02-21T00:00:08;100733.09;;;5.86;100.00
77939;BME280;67136;47.546;21.630;2024-02-21T00:03:13;100717.72;;;5.83;100.00
77939;BME280;67136;47.546;21.630;2024-02-21T00:06:16;100717.00;;;5.80;100.00
77939;BME280;67136;47.546;21.630;2024-02-21T00:09:18;100720.47;;;5.80;100.00
77939;BME280;67136;47.546;21.630;2024-02-21T00:12:22;100717.94;;;5.79;100.00
77939;BME280;67136;47.546;21.630;2024-02-21T00:15:25;100713.84;;;5.75;100.00
77939;BME280;67136;47.546;21.630;2024-02-21T00:18:28;100709.69;;;5.72;100.00
77939;BME280;67136;47.546;21.630;2024-02-21T00:21:32;100712.28;;;5.72;100.00
77939;BME280;67136;47.546;21.630;2024-02-21T00:24:35;100706.25;;;5.72;100.00
77939;BME280;67136;47.546;21.630;2024-02-21T00:27:38;100708.25;;;5.67;100.00
77939;BME280;67136;47.546;21.630;2024-02-21T00:30:41;100702.16;;;5.68;100.00
77939;BME280;67136;47.546;21.630;2024-02-21T00:33:44;100709.19;;;5.66;100.00
77939;BME280;67136;47.546;21.630;2024-02-21T00:36:46;100704.19;;;5.63;100.00
77939;BME280;67136;47.546;21.630;2024-02-21T00:39:49;100700.66;;;5.64;100.00
77939;BME280;67136;47.546;21.630;2024-02-21T00:42:52;100705.06;;;5.62;100.00
77939;BME280;67136;47.546;21.630;2024-02-21T00:45:54;100705.16;;;5.60;100.00
77939;BME280;67136;47.546;21.630;2024-02-21T00:48:57;100690.19;;;5.65;100.00
77939;BME280;67136;47.546;21.630;2024-02-21T00:52:00;100688.44;;;5.66;100.00
77939;BME280;67136;47.546;21.630;2024-02-21T00:55:03;100691.78;;;5.68;100.00
77939;BME280;67136;47.546;21.630;2024-02-21T00:58:06;100692.88;;;5.64;100.00
77939;BME280;67136;47.546;21.630;2024-02-21T01:01:09;100687.09;;;5.59;100.00
77939;BME280;67136;47.546;21.630;2024-02-21T01:04:12;100687.94;;;5.59;100.00
77939;BME280;67136;47.546;21.630;2024-02-21T01:07:15;100693.47;;;5.53;100.00
77939;BME280;67136;47.546;21.630;2024-02-21T01:10:18;100690.03;;;5.53;100.00
77939;BME280;67136;47.546;21.630;2024-02-21T01:13:20;100691.13;;;5.49;100.00
77939;BME280;67136;47.546;21.630;2024-02-21T01:16:23;100681.59;;;5.49;100.00
77939;BME280;67136;47.546;21.630;2024-02-21T01:19:25;100683.25;;;5.50;100.00
77939;BME280;67136;47.546;21.630;2024-02-21T01:22:28;100682.69;;;5.45;100.00
77939;BME280;67136;47.546;21.630;2024-02-21T01:25:31;100677.59;;;5.44;100.00
77939;BME280;67136;47.546;21.630;2024-02-21T01:28:34;100666.44;;;5.42;100.00
77939;BME280;67136;47.546;21.630;2024-02-21T01:31:40;100667.37;;;5.41;100.00
77939;BME280;67136;47.546;21.630;2024-02-21T01:34:43;100662.44;;;5.36;100.00
77939;BME280;67136;47.546;21.630;2024-02-21T01:37:46;100666.72;;;5.37;100.00
77939;BME280;67136;47.546;21.630;2024-02-21T01:40:49;100654.75;;;5.35;100.00
77939;BME280;67136;47.546;21.630;2024-02-21T01:43:51;100648.78;;;5.33;100.00
77939;BME280;67136;47.546;21.630;2024-02-21T01:46:54;100648.78;;;5.33;100.00
77939;BME280;67136;47.546;21.630;2024-02-21T01:49:57;100651.34;;;5.34;100.00
77939;BME280;67136;47.546;21.630;2024-02-21T01:53:00;100655.50;;;5.37;100.00
77939;BME280;67136;47.546;21.630;2024-02-21T01:56:03;100650.50;;;5.34;100.00
77939;BME280;67136;47.546;21.630;2024-02-21T01:59:08;100641.19;;;5.30;100.00
77939;BME280;67136;47.546;21.630;2024-02-21T02:02:10;100654.16;;;5.30;100.00
77939;BME280;67136;47.546;21.630;2024-02-21T02:05:15;100652.50;;;5.29;100.00
77939;BME280;67136;47.546;21.630;2024-02-21T02:08:19;100645.97;;;5.22;100.00
77939;BME280;67136;47.546;21.630;2024-02-21T02:11:28;100649.50;;;5.21;100.00
77939;BME280;67136;47.546;21.630;2024-02-21T02:14:31;100651.34;;;5.19;100.00
77939;BME280;67136;47.546;21.630;2024-02-21T02:17:34;100639.44;;;5.15;100.00
77939;BME280;67136;47.546;21.630;2024-02-21T02:20:36;100643.72;;;5.16;100.00
77939;BME280;67136;47.546;21.630;2024-02-21T02:23:40;100642.97;;;5.14;100.00
77939;BME280;67136;47.546;21.630;2024-02-21T02:26:43;100643.19;;;5.09;100.00
77939;BME280;67136;47.546;21.630;2024-02-21T02:29:46;100642.62;;;5.04;100.00
77939;BME280;67136;47.546;21.630;2024-02-21T02:32:49;100638.78;;;4.95;100.00
77939;BME280;67136;47.546;21.630;2024-02-21T02:35:52;100638.03;;;4.93;100.00
77939;BME280;67136;47.546;21.630;2024-02-21T02:38:54;100633.91;;;4.89;100.00
77939;BME280;67136;47.546;21.630;2024-02-21T02:41:57;100637.75;;;4.82;100.00
77939;BME280;67136;47.546;21.630;2024-02-21T02:44:59;100629.97;;;4.82;100.00
77939;BME280;67136;47.546;21.630;2024-02-21T02:48:02;100628.06;;;4.86;100.00
77939;BME280;67136;47.546;21.630;2024-02-21T02:51:06;100625.66;;;4.83;100.00
77939;BME280;67136;47.546;21.630;2024-02-21T02:54:09;100616.22;;;4.82;100.00
77939;BME280;67136;47.546;21.630;2024-02-21T02:57:11;100627.37;;;4.82;100.00
77939;BME280;67136;47.546;21.630;2024-02-21T03:00:14;100632.56;;;4.82;100.00
77939;BME280;67136;47.546;21.630;2024-02-21T03:03:17;100625.72;;;4.81;100.00
77939;BME280;67136;47.546;21.630;2024-02-21T03:06:20;100627.37;;;4.82;100.00
77939;BME280;67136;47.546;21.630;2024-02-21T03:09:23;100604.72;;;4.70;100.00
77939;BME280;67136;47.546;21.630;2024-02-21T03:12:26;100616.87;;;4.85;100.00
77939;BME280;67136;47.546;21.630;2024-02-21T03:15:30;100616.13;;;4.83;100.00
77939;BME280;67136;47.546;21.630;2024-02-21T03:18:32;100624.66;;;4.85;100.00
77939;BME280;67136;47.546;21.630;2024-02-21T03:21:35;100633.16;;;4.87;100.00
77939;BME280;67136;47.546;21.630;2024-02-21T03:24:38;100636.50;;;4.89;100.00
77939;BME280;67136;47.546;21.630;2024-02-21T03:27:41;100632.09;;;4.91;100.00
77939;BME280;67136;47.546;21.630;2024-02-21T03:30:44;100627.66;;;4.93;100.00
77939;BME280;67136;47.546;21.630;2024-02-21T03:33:46;100637.09;;;4.94;100.00
77939;BME280;67136;47.546;21.630;2024-02-21T03:36:49;100642.28;;;4.94;100.00
77939;BME280;67136;47.546;21.630;2024-02-21T03:39:52;100643.81;;;4.98;100.00
77939;BME280;67136;47.546;21.630;2024-02-21T03:42:55;100647.16;;;5.00;100.00
77939;BME280;67136;47.546;21.630;2024-02-21T03:45:58;100640.09;;;5.02;100.00
77939;BME280;67136;47.546;21.630;2024-02-21T03:49:00;100646.97;;;5.03;100.00
77939;BME280;67136;47.546;21.630;2024-02-21T03:52:03;100649.66;;;5.02;100.00
77939;BME280;67136;47.546;21.630;2024-02-21T03:55:06;100639.22;;;5.03;100.00
77939;BME280;67136;47.546;21.630;2024-02-21T03:58:10;100643.47;;;5.04;100.00
77939;BME280;67136;47.546;21.630;2024-02-21T04:01:15;100638.94;;;5.08;100.00
77939;BME280;67136;47.546;21.630;2024-02-21T04:04:18;100651.50;;;5.16;100.00
77939;BME280;67136;47.546;21.630;2024-02-21T04:07:24;100645.38;;;5.17;100.00
77939;BME280;67136;47.546;21.630;2024-02-21T04:10:27;100642.62;;;5.20;100.00
77939;BME280;67136;47.546;21.630;2024-02-21T04:13:29;100641.28;;;5.12;100.00
77939;BME280;67136;47.546;21.630;2024-02-21T04:16:34;100637.88;;;5.12;100.00
77939;BME280;67136;47.546;21.630;2024-02-21T04:19:37;100646.56;;;5.11;100.00
77939;BME280;67136;47.546;21.630;2024-02-21T04:22:41;100645.38;;;5.17;100.00
77939;BME280;67136;47.546;21.630;2024-02-21T04:25:43;100642.97;;;5.14;100.00
77939;BME280;67136;47.546;21.630;2024-02-21T04:28:46;100644.31;;;5.21;100.00
77939;BME280;67136;47.546;21.630;2024-02-21T04:31:49;100639.63;;;5.27;100.00
77939;BME280;67136;47.546;21.630;2024-02-21T04:34:52;100637.78;;;5.14;100.00
77939;BME280;67136;47.546;21.630;2024-02-21T04:37:55;100635.44;;;5.09;100.00
77939;BME280;67136;47.546;21.630;2024-02-21T04:40:58;100636.94;;;4.97;100.00
77939;BME280;67136;47.546;21.630;2024-02-21T04:44:01;100642.28;;;4.94;100.00
77939;BME280;67136;47.546;21.630;2024-02-21T04:47:06;100646.28;;;4.84;100.00
77939;BME280;67136;47.546;21.630;2024-02-21T04:50:09;100639.63;;;4.80;100.00
77939;BME280;67136;47.546;21.630;2024-02-21T04:53:13;100644.94;;;4.77;100.00
77939;BME280;67136;47.546;21.630;2024-02-21T04:56:15;100651.88;;;4.77;100.00
77939;BME280;67136;47.546;21.630;2024-02-21T04:59:18;100647.84;;;4.71;100.00
77939;BME280;67136;47.546;21.630;2024-02-21T05:02:21;100648.25;;;4.64;100.00
77939;BME280;67136;47.546;21.630;2024-02-21T05:05:27;100635.38;;;4.62;100.00
77939;BME280;67136;47.546;21.630;2024-02-21T05:08:29;100653.94;;;4.55;100.00
77939;BME280;67136;47.546;21.630;2024-02-21T05:11:32;100650.50;;;4.54;100.00
77939;BME280;67136;47.546;21.630;2024-02-21T05:14:35;100652.16;;;4.55;100.00
77939;BME280;67136;47.546;21.630;2024-02-21T05:17:37;100649.09;;;4.64;100.00
77939;BME280;67136;47.546;21.630;2024-02-21T05:20:40;100651.03;;;4.76;100.00
77939;BME280;67136;47.546;21.630;2024-02-21T05:23:43;100649.81;;;4.83;100.00
77939;BME280;67136;47.546;21.630;2024-02-21T05:26:46;100649.63;;;4.86;100.00
77939;BME280;67136;47.546;21.630;2024-02-21T05:29:49;100656.34;;;4.90;100.00
77939;BME280;67136;47.546;21.630;2024-02-21T05:32:52;100649.47;;;4.89;100.00
77939;BME280;67136;47.546;21.630;2024-02-21T05:35:55;100628.25;;;4.83;100.00
77939;BME280;67136;47.546;21.630;2024-02-21T05:38:58;100654.84;;;5.02;100.00
77939;BME280;67136;47.546;21.630;2024-02-21T05:42:01;100655.25;;;5.10;100.00
77939;BME280;67136;47.546;21.630;2024-02-21T05:45:04;100665.06;;;5.21;100.00
77939;BME280;67136;47.546;21.630;2024-02-21T05:48:07;100672.75;;;5.22;100.00
77939;BME280;67136;47.546;21.630;2024-02-21T05:51:09;100675.25;;;5.24;100.00
77939;BME280;67136;47.546;21.630;2024-02-21T05:54:12;100678.75;;;5.23;100.00
77939;BME280;67136;47.546;21.630;2024-02-21T05:57:14;100680.84;;;5.32;100.00
77939;BME280;67136;47.546;21.630;2024-02-21T06:00:19;100684.09;;;5.35;100.00
77939;BME280;67136;47.546;21.630;2024-02-21T06:03:22;100693.12;;;5.44;100.00
77939;BME280;67136;47.546;21.630;2024-02-21T06:06:25;100687.78;;;5.47;100.00
77939;BME280;67136;47.546;21.630;2024-02-21T06:09:28;100685.75;;;5.52;100.00
77939;BME280;67136;47.546;21.630;2024-02-21T06:12:31;100688.28;;;5.38;100.00
77939;BME280;67136;47.546;21.630;2024-02-21T06:15:34;100685.69;;;5.38;100.00
77939;BME280;67136;47.546;21.630;2024-02-21T06:18:37;100682.84;;;5.58;100.00
77939;BME280;67136;47.546;21.630;2024-02-21T06:21:40;100688.09;;;5.56;100.00
77939;BME280;67136;47.546;21.630;2024-02-21T06:24:43;100693.63;;;5.66;100.00
77939;BME280;67136;47.546;21.630;2024-02-21T06:27:46;100693.00;;;5.76;100.00
77939;BME280;67136;47.546;21.630;2024-02-21T06:30:48;100696.25;;;5.80;100.00
77939;BME280;67136;47.546;21.630;2024-02-21T06:33:51;100700.31;;;5.85;100.00
77939;BME280;67136;47.546;21.630;2024-02-21T06:36:54;100699.44;;;6.00;100.00
77939;BME280;67136;47.546;21.630;2024-02-21T06:39:57;100704.63;;;6.30;100.00
77939;BME280;67136;47.546;21.630;2024-02-21T06:43:00;100700.53;;;6.40;100.00
77939;BME280;67136;47.546;21.630;2024-02-21T06:46:03;100706.50;;;6.28;100.00
77939;BME280;67136;47.546;21.630;2024-02-21T06:49:06;100707.22;;;6.30;100.00
77939;BME280;67136;47.546;21.630;2024-02-21T06:52:09;100715.09;;;6.28;100.00
77939;BME280;67136;47.546;21.630;2024-02-21T06:55:11;100711.69;;;6.28;100.00
77939;BME280;67136;47.546;21.630;2024-02-21T06:58:14;100717.59;;;6.30;100.00
77939;BME280;67136;47.546;21.630;2024-02-21T07:01:19;100720.31;;;6.43;100.00
77939;BME280;67136;47.546;21.630;2024-02-21T07:04:22;100724.69;;;6.42;100.00
77939;BME280;67136;47.546;21.630;2024-02-21T07:07:25;100717.25;;;6.36;100.00
77939;BME280;67136;47.546;21.630;2024-02-21T07:10:28;100727.31;;;6.56;100.00
77939;BME280;67136;47.546;21.630;2024-02-21T07:13:32;100727.28;;;6.42;100.00
77939;BME280;67136;47.546;21.630;2024-02-21T07:16:35;100738.69;;;6.54;100.00
77939;BME280;67136;47.546;21.630;2024-02-21T07:19:37;100741.38;;;6.52;100.00
77939;BME280;67136;47.546;21.630;2024-02-21T07:22:40;100740.69;;;6.50;100.00
77939;BME280;67136;47.546;21.630;2024-02-21T07:25:43;100747.34;;;6.54;100.00
77939;BME280;67136;47.546;21.630;2024-02-21T07:28:46;100744.19;;;6.49;100.00
77939;BME280;67136;47.546;21.630;2024-02-21T07:31:48;100748.19;;;6.55;100.00
77939;BME280;67136;47.546;21.630;2024-02-21T07:34:51;100745.13;;;6.48;100.00
77939;BME280;67136;47.546;21.630;2024-02-21T07:37:54;100752.34;;;6.57;100.00
77939;BME280;67136;47.546;21.630;2024-02-21T07:40:57;100750.88;;;6.53;100.00
77939;BME280;67136;47.546;21.630;2024-02-21T07:44:00;100744.69;;;6.40;100.00
77939;BME280;67136;47.546;21.630;2024-02-21T07:47:03;100759.37;;;6.41;100.00
77939;BME280;67136;47.546;21.630;2024-02-21T07:50:06;100757.25;;;6.48;100.00
77939;BME280;67136;47.546;21.630;2024-02-21T07:53:09;100761.75;;;6.60;100.00
77939;BME280;67136;47.546;21.630;2024-02-21T07:56:12;100765.72;;;6.51;100.00
77939;BME280;67136;47.546;21.630;2024-02-21T07:59:15;100758.69;;;6.67;100.00
77939;BME280;67136;47.546;21.630;2024-02-21T08:02:21;100766.66;;;6.50;100.00
77939;BME280;67136;47.546;21.630;2024-02-21T08:05:28;100758.09;;;6.62;100.00
77939;BME280;67136;47.546;21.630;2024-02-21T08:08:32;100761.09;;;6.56;100.00
77939;BME280;67136;47.546;21.630;2024-02-21T08:11:35;100757.91;;;6.51;100.00
77939;BME280;67136;47.546;21.630;2024-02-21T08:14:38;100759.34;;;6.71;100.00
77939;BME280;67136;47.546;21.630;2024-02-21T08:17:41;100759.06;;;6.61;100.00
77939;BME280;67136;47.546;21.630;2024-02-21T08:20:43;100756.06;;;6.67;100.00
77939;BME280;67136;47.546;21.630;2024-02-21T08:23:46;100757.62;;;6.56;100.00
77939;BME280;67136;47.546;21.630;2024-02-21T08:26:53;100761.84;;;6.58;100.00
77939;BME280;67136;47.546;21.630;2024-02-21T08:29:56;100760.69;;;6.92;100.00
77939;BME280;67136;47.546;21.630;2024-02-21T08:32:59;100745.84;;;6.94;100.00
77939;BME280;67136;47.546;21.630;2024-02-21T08:36:02;100748.87;;;7.00;100.00
77939;BME280;67136;47.546;21.630;2024-02-21T08:39:05;100747.28;;;6.98;100.00
77939;BME280;67136;47.546;21.630;2024-02-21T08:42:08;100747.81;;;7.45;100.00
77939;BME280;67136;47.546;21.630;2024-02-21T08:45:10;100745.13;;;7.46;100.00
77939;BME280;67136;47.546;21.630;2024-02-21T08:48:13;100741.84;;;7.71;100.00
77939;BME280;67136;47.546;21.630;2024-02-21T08:51:16;100751.97;;;7.62;100.00
77939;BME280;67136;47.546;21.630;2024-02-21T08:54:19;100750.50;;;8.25;100.00
77939;BME280;67136;47.546;21.630;2024-02-21T08:57:22;100756.22;;;8.30;100.00
77939;BME280;67136;47.546;21.630;2024-02-21T09:00:25;100760.19;;;8.09;100.00
77939;BME280;67136;47.546;21.630;2024-02-21T09:03:33;100752.63;;;7.92;100.00
77939;BME280;67136;47.546;21.630;2024-02-21T09:06:36;100756.13;;;8.44;100.00
77939;BME280;67136;47.546;21.630;2024-02-21T09:09:41;100760.72;;;8.40;100.00
77939;BME280;67136;47.546;21.630;2024-02-21T09:12:44;100767.06;;;8.10;100.00
77939;BME280;67136;47.546;21.630;2024-02-21T09:15:47;100765.94;;;7.87;100.00
77939;BME280;67136;47.546;21.630;2024-02-21T09:18:51;100765.97;;;8.00;100.00
77939;BME280;67136;47.546;21.630;2024-02-21T09:21:55;100772.91;;;8.13;100.00
77939;BME280;67136;47.546;21.630;2024-02-21T09:24:58;100772.56;;;8.05;100.00
77939;BME280;67136;47.546;21.630;2024-02-21T09:28:01;100780.44;;;8.18;100.00
77939;BME280;67136;47.546;21.630;2024-02-21T09:31:04;100774.16;;;8.08;100.00
77939;BME280;67136;47.546;21.630;2024-02-21T09:34:07;100776.88;;;8.19;100.00
77939;BME280;67136;47.546;21.630;2024-02-21T09:37:11;100774.16;;;8.08;100.00
77939;BME280;67136;47.546;21.630;2024-02-21T09:40:15;100772.19;;;8.38;100.00
77939;BME280;67136;47.546;21.630;2024-02-21T09:43:21;100771.81;;;9.19;100.00
77939;BME280;67136;47.546;21.630;2024-02-21T09:50:00;100775.63;;;9.51;100.00
77939;BME280;67136;47.546;21.630;2024-02-21T09:53:04;100771.56;;;9.83;96.30
77939;BME280;67136;47.546;21.630;2024-02-21T09:56:10;100769.88;;;9.59;96.74
77939;BME280;67136;47.546;21.630;2024-02-21T09:59:16;100772.78;;;9.54;96.56
77939;BME280;67136;47.546;21.630;2024-02-21T10:02:19;100780.47;;;9.32;97.34
77939;BME280;67136;47.546;21.630;2024-02-21T10:05:23;100775.47;;;9.04;99.33
77939;BME280;67136;47.546;21.630;2024-02-21T10:08:27;100777.25;;;9.29;99.35
77939;BME280;67136;47.546;21.630;2024-02-21T10:11:30;100782.16;;;9.08;98.02
77939;BME280;67136;47.546;21.630;2024-02-21T10:14:33;100775.97;;;9.34;97.21
77939;BME280;67136;47.546;21.630;2024-02-21T10:17:36;100783.84;;;9.70;96.15
77939;BME280;67136;47.546;21.630;2024-02-21T10:20:40;100776.59;;;9.50;96.10
77939;BME280;67136;47.546;21.630;2024-02-21T10:23:50;100776.22;;;8.94;98.80
77939;BME280;67136;47.546;21.630;2024-02-21T10:27:08;100772.44;;;8.60;100.00
77939;BME280;67136;47.546;21.630;2024-02-21T10:30:14;100775.97;;;8.59;100.00
77939;BME280;67136;47.546;21.630;2024-02-21T10:33:18;100779.94;;;8.64;100.00
77939;BME280;67136;47.546;21.630;2024-02-21T10:36:26;100778.84;;;8.42;100.00
77939;BME280;67136;47.546;21.630;2024-02-21T10:39:31;100769.47;;;8.13;100.00
77939;BME280;67136;47.546;21.630;2024-02-21T10:42:37;100761.06;;;7.69;100.00
77939;BME280;67136;47.546;21.630;2024-02-21T10:45:41;100762.13;;;7.93;100.00
77939;BME280;67136;47.546;21.630;2024-02-21T10:48:45;100756.53;;;7.85;100.00
77939;BME280;67136;47.546;21.630;2024-02-21T10:51:48;100760.28;;;8.07;100.00
77939;BME280;67136;47.546;21.630;2024-02-21T10:55:03;100751.44;;;8.10;100.00
77939;BME280;67136;47.546;21.630;2024-02-21T10:58:06;100744.19;;;8.15;100.00
77939;BME280;67136;47.546;21.630;2024-02-21T11:01:09;100751.31;;;8.25;100.00
77939;BME280;67136;47.546;21.630;2024-02-21T11:04:12;100735.28;;;8.44;100.00
77939;BME280;67136;47.546;21.630;2024-02-21T11:07:15;100730.09;;;8.44;100.00
77939;BME280;67136;47.546;21.630;2024-02-21T11:10:25;100723.62;;;8.87;99.21
77939;BME280;67136;47.546;21.630;2024-02-21T11:13:34;100720.66;;;9.29;96.77
77939;BME280;67136;47.546;21.630;2024-02-21T11:16:39;100708.25;;;9.56;94.23
77939;BME280;67136;47.546;21.630;2024-02-21T11:19:43;100704.44;;;9.73;92.64
77939;BME280;67136;47.546;21.630;2024-02-21T11:22:50;100708.22;;;9.69;92.13
77939;BME280;67136;47.546;21.630;2024-02-21T11:26:04;100707.50;;;9.90;92.38
77939;BME280;67136;47.546;21.630;2024-02-21T11:29:10;100710.03;;;10.03;91.45
77939;BME280;67136;47.546;21.630;2024-02-21T11:32:18;100705.59;;;11.39;84.88
77939;BME280;67136;47.546;21.630;2024-02-21T11:35:21;100701.06;;;12.47;75.05
77939;BME280;67136;47.546;21.630;2024-02-21T11:38:24;100697.09;;;12.73;73.45
77939;BME280;67136;47.546;21.630;2024-02-21T11:41:27;100698.47;;;10.64;83.69
77939;BME280;67136;47.546;21.630;2024-02-21T11:44:31;100697.25;;;11.56;82.06
77939;BME280;67136;47.546;21.630;2024-02-21T11:47:34;100690.09;;;11.58;79.62
77939;BME280;67136;47.546;21.630;2024-02-21T11:50:37;100678.91;;;12.61;74.34
77939;BME280;67136;47.546;21.630;2024-02-21T11:53:42;100679.81;;;10.90;81.04
77939;BME280;67136;47.546;21.630;2024-02-21T11:57:00;100684.47;;;11.09;81.20
77939;BME280;67136;47.546;21.630;2024-02-21T12:00:15;100691.03;;;10.81;83.11
77939;BME280;67136;47.546;21.630;2024-02-21T12:03:19;100699.34;;;11.31;81.80
77939;BME280;67136;47.546;21.630;2024-02-21T12:06:22;100693.41;;;10.73;82.57
77939;BME280;67136;47.546;21.630;2024-02-21T12:09:26;100691.13;;;10.91;81.33
77939;BME280;67136;47.546;21.630;2024-02-21T12:12:29;100698.44;;;10.42;83.94
77939;BME280;67136;47.546;21.630;2024-02-21T12:15:32;100693.69;;;10.36;84.97
77939;BME280;67136;47.546;21.630;2024-02-21T12:18:35;100698.50;;;9.94;85.97
77939;BME280;67136;47.546;21.630;2024-02-21T12:21:41;100690.50;;;10.09;86.15
77939;BME280;67136;47.546;21.630;2024-02-21T12:24:44;100694.16;;;10.41;84.51
77939;BME280;67136;47.546;21.630;2024-02-21T12:27:54;100686.59;;;12.11;78.40
77939;BME280;67136;47.546;21.630;2024-02-21T12:30:56;100681.53;;;16.09;60.01
77939;BME280;67136;47.546;21.630;2024-02-21T12:33:59;100675.78;;;15.61;57.49
77939;BME280;67136;47.546;21.630;2024-02-21T12:37:02;100679.12;;;17.26;52.52
77939;BME280;67136;47.546;21.630;2024-02-21T12:40:11;100670.91;;;16.01;53.07
77939;BME280;67136;47.546;21.630;2024-02-21T12:43:16;100662.31;;;15.64;55.60
77939;BME280;67136;47.546;21.630;2024-02-21T12:46:21;100653.72;;;14.80;57.68
77939;BME280;67136;47.546;21.630;2024-02-21T12:49:24;100656.06;;;13.61;64.48
77939;BME280;67136;47.546;21.630;2024-02-21T12:52:27;100651.50;;;13.44;63.74
77939;BME280;67136;47.546;21.630;2024-02-21T12:55:30;100639.69;;;13.19;64.87
77939;BME280;67136;47.546;21.630;2024-02-21T12:58:33;100639.53;;;12.30;69.16
77939;BME280;67136;47.546;21.630;2024-02-21T13:01:38;100631.31;;;12.14;69.68
77939;BME280;67136;47.546;21.630;2024-02-21T13:04:41;100638.00;;;13.09;67.08
77939;BME280;67136;47.546;21.630;2024-02-21T13:07:51;100640.59;;;16.23;58.41
77939;BME280;67136;47.546;21.630;2024-02-21T13:11:02;100647.31;;;18.80;48.21
77939;BME280;67136;47.546;21.630;2024-02-21T13:14:06;100648.16;;;19.19;46.42
77939;BME280;67136;47.546;21.630;2024-02-21T13:17:09;100642.22;;;18.71;48.25
77939;BME280;67136;47.546;21.630;2024-02-21T13:20:11;100647.28;;;21.35;39.67
77939;BME280;67136;47.546;21.630;2024-02-21T13:23:15;100652.38;;;22.91;36.03
77939;BME280;67136;47.546;21.630;2024-02-21T13:26:18;100645.91;;;20.15;40.26
77939;BME280;67136;47.546;21.630;2024-02-21T13:29:21;100636.13;;;14.44;55.63
77939;BME280;67136;47.546;21.630;2024-02-21T13:32:24;100640.87;;;15.05;55.28
77939;BME280;67136;47.546;21.630;2024-02-21T13:35:26;100640.91;;;14.68;57.43
77939;BME280;67136;47.546;21.630;2024-02-21T13:38:30;100639.28;;;12.33;63.49
77939;BME280;67136;47.546;21.630;2024-02-21T13:41:33;100638.19;;;11.09;72.80
77939;BME280;67136;47.546;21.630;2024-02-21T13:44:35;100636.34;;;11.43;72.70
77939;BME280;67136;47.546;21.630;2024-02-21T13:47:40;100629.53;;;10.98;74.70
77939;BME280;67136;47.546;21.630;2024-02-21T13:50:42;100637.63;;;10.95;75.42
77939;BME280;67136;47.546;21.630;2024-02-21T13:53:46;100632.97;;;10.87;76.54
77939;BME280;67136;47.546;21.630;2024-02-21T13:56:51;100638.22;;;10.43;77.48
77939;BME280;67136;47.546;21.630;2024-02-21T13:59:54;100644.22;;;10.22;78.81
77939;BME280;67136;47.546;21.630;2024-02-21T14:02:58;100638.81;;;10.58;76.83
77939;BME280;67136;47.546;21.630;2024-02-21T14:06:02;100637.37;;;10.54;76.56
77939;BME280;67136;47.546;21.630;2024-02-21T14:09:04;100631.25;;;10.20;77.70
77939;BME280;67136;47.546;21.630;2024-02-21T14:12:07;100635.59;;;9.97;78.25
77939;BME280;67136;47.546;21.630;2024-02-21T14:15:10;100636.41;;;10.33;77.60
77939;BME280;67136;47.546;21.630;2024-02-21T14:18:13;100627.84;;;10.31;76.95
77939;BME280;67136;47.546;21.630;2024-02-21T14:21:18;100637.13;;;10.57;75.39
77939;BME280;67136;47.546;21.630;2024-02-21T14:24:23;100634.41;;;10.80;72.53
77939;BME280;67136;47.546;21.630;2024-02-21T14:27:25;100639.47;;;13.51;63.22
77939;BME280;67136;47.546;21.630;2024-02-21T14:30:28;100635.84;;;13.33;60.74
77939;BME280;67136;47.546;21.630;2024-02-21T14:33:31;100633.37;;;13.98;57.92
77939;BME280;67136;47.546;21.630;2024-02-21T14:36:34;100636.38;;;15.15;54.15
77939;BME280;67136;47.546;21.630;2024-02-21T14:39:36;100634.78;;;14.67;54.71
77939;BME280;67136;47.546;21.630;2024-02-21T14:42:39;100632.56;;;14.07;57.79
77939;BME280;67136;47.546;21.630;2024-02-21T14:45:42;100635.72;;;14.20;56.71
77939;BME280;67136;47.546;21.630;2024-02-21T14:48:46;100630.84;;;14.44;53.66
77939;BME280;67136;47.546;21.630;2024-02-21T14:51:49;100625.09;;;13.84;56.78
77939;BME280;67136;47.546;21.630;2024-02-21T14:54:52;100629.38;;;16.03;51.53
77939;BME280;67136;47.546;21.630;2024-02-21T14:57:55;100628.41;;;13.76;56.01
77939;BME280;67136;47.546;21.630;2024-02-21T15:00:58;100616.06;;;11.88;62.62
77939;BME280;67136;47.546;21.630;2024-02-21T15:04:00;100625.69;;;12.70;63.35
77939;BME280;67136;47.546;21.630;2024-02-21T15:07:03;100627.59;;;13.47;60.82
77939;BME280;67136;47.546;21.630;2024-02-21T15:10:06;100628.25;;;13.30;60.79
77939;BME280;67136;47.546;21.630;2024-02-21T15:13:09;100625.66;;;11.24;68.36
77939;BME280;67136;47.546;21.630;2024-02-21T15:16:12;100621.44;;;11.12;69.33
77939;BME280;67136;47.546;21.630;2024-02-21T15:19:18;100627.28;;;11.47;67.57
77939;BME280;67136;47.546;21.630;2024-02-21T15:22:20;100622.06;;;11.47;67.66
77939;BME280;67136;47.546;21.630;2024-02-21T15:25:24;100614.81;;;10.53;71.51
77939;BME280;67136;47.546;21.630;2024-02-21T15:28:28;100621.94;;;10.05;74.59
77939;BME280;67136;47.546;21.630;2024-02-21T15:31:31;100613.13;;;9.95;75.62
77939;BME280;67136;47.546;21.630;2024-02-21T15:34:34;100617.56;;;10.05;74.91
77939;BME280;67136;47.546;21.630;2024-02-21T15:37:37;100617.63;;;9.58;76.84
77939;BME280;67136;47.546;21.630;2024-02-21T15:40:40;100618.84;;;9.18;80.45
77939;BME280;67136;47.546;21.630;2024-02-21T15:43:43;100618.72;;;9.20;80.76
77939;BME280;67136;47.546;21.630;2024-02-21T15:46:45;100615.06;;;8.86;82.89
77939;BME280;67136;47.546;21.630;2024-02-21T15:49:48;100611.16;;;8.55;85.50